Ober, Indiana
Current Conditions -  °F | °C
As of 7:15 PM on Thursday 27 Nov 2014 (Local Time) from KOXI Reporting Station
Overcast Overcast  
Wind Chill: 15°   Ceiling: 3900
Heat Index: 24°   Visibility: 10mi
Dew Point: 17°   Wind: 8mph
Humidity: 76%   Direction: 300°WNW
Pressure: 30.38"   Gusts: NA
Location:  41.2954°N, 86.6039°W
Report Text: KOXI 280115Z AUTO 30007KT 10SM OVC039 M05/M08 A3038 RMK AO1 T10461083
Loading
Personal Weather Stations






























Interactive Weather Map New forecast layout! Learn more

10-Day Weather Forecast

Advertisements
Track Severe Weather on mobile